createdAt,value
2022-08-07T00:00:22.125Z,94.34
2022-08-07T00:01:44.540Z,94.65
2022-08-07T00:02:44.204Z,94.85
2022-08-07T00:03:22.092Z,94.75
2022-08-07T00:04:24.526Z,94.65
2022-08-07T00:05:23.765Z,94.75
2022-08-07T00:06:33.027Z,94.85
2022-08-07T00:07:22.051Z,95.06
2022-08-07T00:08:22.107Z,95.06
2022-08-07T00:09:22.258Z,95.00
2022-08-07T00:10:27.364Z,95.00
2022-08-07T00:11:29.995Z,95.10
2022-08-07T00:12:22.021Z,95.31
2022-08-07T00:13:23.896Z,95.41
2022-08-07T00:14:22.037Z,95.20
2022-08-07T00:15:22.007Z,95.10
2022-08-07T00:16:27.893Z,95.00
2022-08-07T00:17:21.964Z,94.90
2022-08-07T00:18:24.465Z,95.00
2022-08-07T00:19:26.120Z,95.51
2022-08-07T00:20:29.912Z,95.41
2022-08-07T00:21:57.155Z,95.41
2022-08-07T00:22:24.361Z,95.51
2022-08-07T00:23:21.883Z,95.31
2022-08-07T00:24:21.833Z,95.10
2022-08-07T00:25:21.880Z,95.20
2022-08-07T00:26:49.341Z,95.41
2022-08-07T00:27:22.630Z,95.51
2022-08-07T00:28:22.070Z,95.41
2022-08-07T00:29:23.448Z,95.31
2022-08-07T00:30:27.798Z,95.20
2022-08-07T00:31:21.797Z,95.20
2022-08-07T00:32:24.616Z,95.41
2022-08-07T00:33:21.765Z,95.41
2022-08-07T00:34:21.765Z,95.41
2022-08-07T00:35:23.175Z,95.45
2022-08-07T00:36:21.796Z,95.45
2022-08-07T00:37:22.699Z,95.56
2022-08-07T00:38:31.367Z,95.65
2022-08-07T00:39:21.741Z,95.56
2022-08-07T00:40:36.398Z,95.56
2022-08-07T00:41:21.704Z,95.65
2022-08-07T00:42:25.477Z,95.65
2022-08-07T00:44:01.924Z,95.45
2022-08-07T00:44:21.661Z,95.45
2022-08-07T00:45:21.662Z,95.45
2022-08-07T00:46:21.647Z,95.45
2022-08-07T00:48:07.636Z,95.76
2022-08-07T00:48:24.977Z,96.06
2022-08-07T00:49:24.990Z,96.17
2022-08-07T00:50:46.708Z,96.37
2022-08-07T00:51:21.583Z,96.37
2022-08-07T00:52:21.608Z,96.27
2022-08-07T00:53:21.557Z,96.27
2022-08-07T00:54:22.403Z,96.37
2022-08-07T00:55:25.312Z,96.37
2022-08-07T00:56:21.561Z,96.47
2022-08-07T00:57:21.539Z,96.51
2022-08-07T00:58:21.516Z,96.51
2022-08-07T00:59:32.486Z,96.42
2022-08-07T01:00:21.501Z,96.42
2022-08-07T01:01:21.579Z,96.51
2022-08-07T01:02:29.024Z,96.51
2022-08-07T01:03:21.498Z,96.51
2022-08-07T01:04:24.864Z,96.51
2022-08-07T01:05:24.559Z,96.51
2022-08-07T01:06:21.861Z,96.62
2022-08-07T01:07:21.459Z,96.62
2022-08-07T01:08:21.487Z,96.83
2022-08-07T01:10:04.991Z,96.72
2022-08-07T01:10:21.400Z,96.62
2022-08-07T01:12:27.472Z,96.62
2022-08-07T01:12:35.026Z,96.72
2022-08-07T01:13:21.379Z,96.72
2022-08-07T01:14:28.562Z,96.92
2022-08-07T01:15:21.345Z,97.03
2022-08-07T01:16:30.478Z,97.13
2022-08-07T01:17:21.324Z,97.13
2022-08-07T01:18:21.320Z,97.33
2022-08-07T01:19:21.328Z,97.33
2022-08-07T01:20:21.313Z,97.33
2022-08-07T01:21:22.822Z,97.33
2022-08-07T01:22:22.943Z,97.24
2022-08-07T01:23:21.289Z,97.24
2022-08-07T01:24:22.323Z,97.13
2022-08-07T01:25:54.277Z,97.03
2022-08-07T01:26:21.289Z,97.03
2022-08-07T01:27:21.258Z,97.03
2022-08-07T01:28:21.220Z,96.92
2022-08-07T01:29:21.221Z,97.03
2022-08-07T01:30:21.199Z,97.13
2022-08-07T01:31:21.184Z,97.44
2022-08-07T01:32:22.374Z,97.54
2022-08-07T01:33:21.188Z,97.64
2022-08-07T01:34:30.064Z,97.74
2022-08-07T01:35:21.150Z,97.74
2022-08-07T01:36:21.210Z,97.64
2022-08-07T01:37:21.220Z,97.44
2022-08-07T01:38:24.931Z,97.13
2022-08-07T01:39:21.160Z,96.83
2022-08-07T01:40:21.099Z,96.83
2022-08-07T01:41:21.104Z,96.83
2022-08-07T01:42:37.725Z,96.92
2022-08-07T01:43:21.066Z,97.08
2022-08-07T01:44:21.049Z,97.13
2022-08-07T01:45:22.696Z,97.28
2022-08-07T01:46:21.484Z,97.17
2022-08-07T01:48:19.445Z,97.28
2022-08-07T01:48:34.162Z,97.49
2022-08-07T01:49:22.246Z,97.58
2022-08-07T01:50:28.497Z,97.79
2022-08-07T01:52:02.205Z,97.89
2022-08-07T01:52:20.937Z,97.99
2022-08-07T01:53:21.891Z,98.10
2022-08-07T01:54:32.587Z,97.99
2022-08-07T01:55:22.246Z,97.99
2022-08-07T01:56:21.150Z,97.99
2022-08-07T01:57:24.714Z,97.99
2022-08-07T01:58:29.085Z,98.10
2022-08-07T01:59:20.861Z,97.99
2022-08-07T02:00:28.823Z,97.99
2022-08-07T02:01:59.209Z,97.89
2022-08-07T02:02:32.803Z,97.89
2022-08-07T02:03:26.254Z,97.99
2022-08-07T02:04:20.906Z,97.89
2022-08-07T02:05:47.574Z,97.79
2022-08-07T02:06:31.442Z,97.69
2022-08-07T02:07:20.823Z,97.69
2022-08-07T02:08:20.811Z,97.69
2022-08-07T02:09:33.751Z,97.69
2022-08-07T02:10:20.771Z,97.69
2022-08-07T02:12:02.643Z,97.79
2022-08-07T02:12:22.211Z,97.69
2022-08-07T02:13:20.718Z,97.69
2022-08-07T02:14:35.774Z,97.79
2022-08-07T02:15:20.707Z,97.79
2022-08-07T02:16:32.948Z,97.94
2022-08-07T02:17:27.742Z,97.94
2022-08-07T02:18:20.705Z,97.83
2022-08-07T02:20:06.702Z,97.94
2022-08-07T02:20:23.478Z,98.04
2022-08-07T02:21:20.632Z,98.14
2022-08-07T02:22:20.638Z,98.14
2022-08-07T02:23:23.913Z,98.14
2022-08-07T02:24:20.649Z,98.24
2022-08-07T02:25:20.667Z,98.24
2022-08-07T02:26:33.865Z,98.24
2022-08-07T02:27:20.723Z,98.24
2022-08-07T02:28:25.602Z,98.24
2022-08-07T02:29:21.911Z,98.14
2022-08-07T02:30:20.655Z,98.14
2022-08-07T02:31:29.129Z,98.04
2022-08-07T02:32:23.449Z,97.94
2022-08-07T02:33:20.570Z,98.04
2022-08-07T02:34:20.524Z,98.14
2022-08-07T02:35:20.523Z,98.24
2022-08-07T02:36:34.295Z,98.24
2022-08-07T02:37:20.504Z,98.24
2022-08-07T02:38:22.797Z,98.24
2022-08-07T02:39:42.922Z,98.45
2022-08-07T02:40:30.832Z,98.45
2022-08-07T02:41:21.473Z,98.55
2022-08-07T02:42:20.452Z,98.65
2022-08-07T02:43:20.445Z,98.65
2022-08-07T02:44:20.462Z,98.65
2022-08-07T02:45:57.645Z,98.65
2022-08-07T02:46:20.417Z,98.65
2022-08-07T02:47:23.657Z,98.75
2022-08-07T02:48:20.415Z,98.86
2022-08-07T02:49:28.861Z,98.86
2022-08-07T02:50:20.466Z,98.86
2022-08-07T02:51:42.180Z,98.96
2022-08-07T02:52:21.441Z,98.86
2022-08-07T02:53:20.343Z,98.86
2022-08-07T02:54:20.353Z,98.75
2022-08-07T02:55:28.578Z,98.65
2022-08-07T02:56:21.811Z,98.65
2022-08-07T02:57:20.321Z,98.60
2022-08-07T02:58:21.732Z,98.60
2022-08-07T02:59:24.170Z,98.60
2022-08-07T03:00:20.273Z,98.60
2022-08-07T03:01:35.714Z,98.70
2022-08-07T03:02:20.530Z,98.70
2022-08-07T03:03:22.700Z,98.70
2022-08-07T03:04:20.270Z,98.70
2022-08-07T03:05:20.574Z,98.70
2022-08-07T03:06:26.065Z,98.60
2022-08-07T03:07:21.505Z,98.60
2022-08-07T03:08:20.265Z,98.49
2022-08-07T03:09:42.050Z,98.49
2022-08-07T03:10:20.201Z,98.49
2022-08-07T03:11:20.197Z,98.49
2022-08-07T03:12:22.401Z,98.39
2022-08-07T03:13:20.302Z,98.19
2022-08-07T03:14:20.164Z,98.08
2022-08-07T03:15:30.273Z,98.08
2022-08-07T03:16:27.658Z,98.08
2022-08-07T03:17:20.190Z,98.19
2022-08-07T03:18:20.349Z,98.39
2022-08-07T03:19:20.139Z,98.70
2022-08-07T03:20:20.071Z,99.01
2022-08-07T03:21:20.107Z,99.11
2022-08-07T03:22:20.048Z,99.21
2022-08-07T03:23:20.042Z,99.21
2022-08-07T03:24:26.906Z,99.21
2022-08-07T03:25:21.071Z,99.21
2022-08-07T03:26:21.262Z,99.21
2022-08-07T03:27:30.484Z,99.21
2022-08-07T03:28:37.463Z,99.21
2022-08-07T03:29:19.968Z,99.21
2022-08-07T03:30:19.957Z,99.31
2022-08-07T03:31:24.447Z,99.41
2022-08-07T03:32:19.997Z,99.41
2022-08-07T03:33:20.250Z,99.41
2022-08-07T03:34:22.660Z,99.31
2022-08-07T03:35:26.082Z,99.31
2022-08-07T03:36:19.904Z,99.31
2022-08-07T03:37:19.906Z,99.41
2022-08-07T03:38:21.363Z,99.41
2022-08-07T03:39:58.921Z,99.41
2022-08-07T03:40:19.946Z,99.31
2022-08-07T03:41:19.906Z,99.26
2022-08-07T03:42:20.137Z,99.26
2022-08-07T03:43:19.857Z,99.36
2022-08-07T03:44:31.755Z,99.36
2022-08-07T03:45:29.979Z,99.36
2022-08-07T03:46:19.800Z,99.46
2022-08-07T03:47:19.804Z,99.46
2022-08-07T03:48:19.822Z,99.46
2022-08-07T03:49:19.813Z,99.46
2022-08-07T03:50:19.819Z,99.46
2022-08-07T03:51:20.747Z,99.46
2022-08-07T03:52:26.186Z,99.56
2022-08-07T03:53:19.841Z,99.66
2022-08-07T03:54:36.436Z,99.56
2022-08-07T03:55:19.759Z,99.56
2022-08-07T03:56:33.597Z,99.56
2022-08-07T03:58:33.517Z,99.56
2022-08-07T03:59:13.333Z,99.56
2022-08-07T03:59:20.167Z,99.66
2022-08-07T04:00:21.098Z,99.66
2022-08-07T04:01:19.720Z,99.66
2022-08-07T04:02:19.850Z,99.56
2022-08-07T04:03:19.651Z,99.56
2022-08-07T04:04:19.625Z,99.46
2022-08-07T04:05:19.629Z,99.46
2022-08-07T04:06:37.309Z,99.46
2022-08-07T04:07:19.676Z,99.46
2022-08-07T04:08:20.988Z,99.46
2022-08-07T04:09:19.535Z,99.56
2022-08-07T04:10:19.746Z,99.66
2022-08-07T04:12:23.991Z,99.77
2022-08-07T04:12:32.676Z,99.77
2022-08-07T04:13:19.565Z,99.77
2022-08-07T04:14:38.485Z,99.77
2022-08-07T04:15:19.517Z,99.56
2022-08-07T04:16:30.084Z,99.46
2022-08-07T04:18:31.243Z,99.46
2022-08-07T04:19:04.326Z,99.46
2022-08-07T04:19:19.774Z,99.66
2022-08-07T04:20:19.500Z,99.77
2022-08-07T04:21:19.421Z,99.98
2022-08-07T04:22:19.450Z,99.98
2022-08-07T04:23:19.656Z,99.98
2022-08-07T04:24:30.484Z,99.98
2022-08-07T04:25:19.409Z,99.98
2022-08-07T04:26:21.885Z,99.98
2022-08-07T04:27:25.252Z,99.99
2022-08-07T04:28:21.741Z,99.99
2022-08-07T04:29:19.368Z,99.99
2022-08-07T04:30:21.455Z,99.99
2022-08-07T04:31:19.831Z,99.99
2022-08-07T04:32:19.396Z,99.98
2022-08-07T04:33:19.347Z,99.98
2022-08-07T04:34:27.537Z,99.98
2022-08-07T04:35:19.299Z,99.99
2022-08-07T04:36:22.773Z,99.99
2022-08-07T04:37:40.430Z,99.99
2022-08-07T04:38:19.319Z,99.99
2022-08-07T04:39:25.442Z,99.99
2022-08-07T04:40:19.685Z,99.99
2022-08-07T04:41:19.415Z,99.99
2022-08-07T04:42:19.229Z,99.99
2022-08-07T04:43:19.234Z,99.99
2022-08-07T04:44:19.395Z,99.99
2022-08-07T04:45:22.806Z,99.99
2022-08-07T04:46:25.806Z,99.99
2022-08-07T04:47:56.794Z,99.99
2022-08-07T04:48:19.180Z,99.99
2022-08-07T04:49:24.612Z,99.99
2022-08-07T04:50:19.190Z,99.99
2022-08-07T04:51:19.134Z,99.99
2022-08-07T04:52:19.151Z,99.99
2022-08-07T04:53:39.945Z,99.99
2022-08-07T04:54:19.121Z,99.99
2022-08-07T04:58:10.639Z,99.99
2022-08-07T04:58:49.821Z,99.99
2022-08-07T05:00:12.559Z,99.99
2022-08-07T05:00:30.479Z,99.99
2022-08-07T05:00:40.992Z,99.99
2022-08-07T05:01:40.947Z,99.99
2022-08-07T05:02:43.531Z,99.99
2022-08-07T05:04:06.832Z,99.99
2022-08-07T05:04:47.253Z,99.99
2022-08-07T05:05:53.345Z,99.99
2022-08-07T05:06:43.755Z,99.99
2022-08-07T05:07:48.241Z,99.99
2022-08-07T05:08:58.995Z,99.99
2022-08-07T05:09:45.393Z,99.99
2022-08-07T05:10:40.815Z,99.99
2022-08-07T05:11:58.730Z,99.99
2022-08-07T05:12:46.209Z,99.99
2022-08-07T05:14:54.136Z,99.99
2022-08-07T05:15:04.846Z,99.99
2022-08-07T05:15:40.760Z,99.99
2022-08-07T05:16:44.117Z,99.99
2022-08-07T05:17:51.872Z,99.99
2022-08-07T05:18:40.728Z,99.99
2022-08-07T05:19:44.743Z,99.99
2022-08-07T05:20:40.724Z,99.99
2022-08-07T05:22:00.220Z,99.99
2022-08-07T05:22:40.707Z,99.99
2022-08-07T05:23:40.660Z,99.99
2022-08-07T05:24:40.856Z,99.99
2022-08-07T05:26:10.435Z,99.99
2022-08-07T05:26:40.674Z,99.99
2022-08-07T05:28:03.432Z,99.99
2022-08-07T05:28:40.804Z,99.99
2022-08-07T05:29:51.193Z,99.99
2022-08-07T05:30:40.642Z,99.99
2022-08-07T05:31:40.625Z,99.99
2022-08-07T05:32:40.647Z,99.99
2022-08-07T05:33:40.648Z,99.99
2022-08-07T05:34:40.693Z,99.99
2022-08-07T05:35:41.559Z,99.99
2022-08-07T05:36:40.568Z,99.99
2022-08-07T05:37:40.800Z,99.99
2022-08-07T05:38:59.384Z,99.99
2022-08-07T05:40:17.352Z,99.99
2022-08-07T05:40:50.286Z,99.99
2022-08-07T05:42:01.736Z,99.99
2022-08-07T05:42:40.521Z,99.99
2022-08-07T05:43:49.771Z,99.90
2022-08-07T05:44:46.356Z,99.79
2022-08-07T05:45:46.459Z,99.69
2022-08-07T05:46:40.464Z,99.54
2022-08-07T05:48:02.671Z,99.54
2022-08-07T05:48:58.115Z,99.54
2022-08-07T05:49:41.236Z,99.65
2022-08-07T05:50:42.965Z,99.65
2022-08-07T05:51:40.671Z,99.75
2022-08-07T05:52:40.618Z,99.75
2022-08-07T05:54:13.868Z,99.85
2022-08-07T05:54:44.444Z,99.65
2022-08-07T05:56:03.290Z,99.65
2022-08-07T05:56:40.415Z,99.44
2022-08-07T05:57:42.233Z,99.19
2022-08-07T05:58:40.380Z,99.09
2022-08-07T05:59:57.049Z,98.99
2022-08-07T06:00:40.346Z,98.89
2022-08-07T06:01:40.499Z,98.79
2022-08-07T06:02:40.348Z,98.68
2022-08-07T06:03:40.421Z,98.89
2022-08-07T06:04:40.326Z,98.79
2022-08-07T06:05:40.606Z,98.89
2022-08-07T06:06:46.385Z,98.89
2022-08-07T06:08:09.335Z,98.84
2022-08-07T06:08:42.538Z,98.84
2022-08-07T06:09:44.924Z,99.04
2022-08-07T06:10:40.525Z,99.04
2022-08-07T06:11:40.224Z,98.94
2022-08-07T06:12:40.205Z,99.00
2022-08-07T06:14:12.400Z,98.90
2022-08-07T06:14:40.360Z,98.39
2022-08-07T06:15:42.773Z,97.67
2022-08-07T06:16:40.271Z,97.37
2022-08-07T06:17:41.294Z,97.53
2022-08-07T06:18:40.221Z,97.22
2022-08-07T06:19:57.760Z,96.51
2022-08-07T06:20:50.790Z,96.41
2022-08-07T06:22:23.409Z,96.20
2022-08-07T06:22:40.381Z,94.53
2022-08-07T06:24:38.695Z,93.62
2022-08-07T06:25:01.251Z,93.41
2022-08-07T06:25:40.345Z,93.10
2022-08-07T06:26:40.197Z,91.84
2022-08-07T06:28:00.031Z,90.17
2022-08-07T06:28:40.073Z,88.30
2022-08-07T06:29:40.072Z,88.71
2022-08-07T06:30:45.382Z,85.47
2022-08-07T06:31:49.817Z,85.07
2022-08-07T06:32:40.071Z,83.40
2022-08-07T06:33:40.071Z,84.93
2022-08-07T06:34:40.629Z,83.37
2022-08-07T06:35:45.518Z,83.57
2022-08-07T06:36:40.066Z,84.28
2022-08-07T06:37:43.544Z,84.85
2022-08-07T06:38:58.765Z,85.46
2022-08-07T06:40:21.280Z,82.11
2022-08-07T06:40:45.778Z,83.83
2022-08-07T06:42:02.605Z,82.72
2022-08-07T06:42:39.909Z,81.06
2022-08-07T06:43:46.676Z,81.16
2022-08-07T06:44:40.035Z,81.73
2022-08-07T06:45:40.138Z,81.93
2022-08-07T06:46:40.264Z,81.12
2022-08-07T06:47:57.682Z,81.23
2022-08-07T06:48:41.782Z,81.52
2022-08-07T06:49:51.516Z,81.12
2022-08-07T06:50:43.195Z,80.82
2022-08-07T06:51:49.324Z,82.24
2022-08-07T06:52:39.791Z,80.62
2022-08-07T06:55:28.517Z,79.40
2022-08-07T06:56:01.643Z,79.30
2022-08-07T06:56:07.574Z,77.88
2022-08-07T06:56:57.093Z,79.87
2022-08-07T06:57:59.256Z,79.26
2022-08-07T07:00:13.121Z,79.83
2022-08-07T07:00:22.176Z,80.13
2022-08-07T07:00:57.003Z,80.54
2022-08-07T07:01:57.298Z,80.84
2022-08-07T07:02:57.657Z,77.91
2022-08-07T07:04:04.227Z,79.13
2022-08-07T07:04:57.011Z,79.93
2022-08-07T07:06:02.461Z,80.44
2022-08-07T07:07:01.118Z,79.83
2022-08-07T07:08:00.107Z,79.53
2022-08-07T07:08:58.068Z,80.94
2022-08-07T07:09:57.022Z,79.83
2022-08-07T07:10:57.857Z,80.24
2022-08-07T07:12:10.750Z,81.05
2022-08-07T07:12:56.975Z,81.35
2022-08-07T07:14:01.320Z,80.64
2022-08-07T07:14:57.043Z,80.84
2022-08-07T07:15:56.975Z,79.79
2022-08-07T07:16:56.896Z,80.80
2022-08-07T07:17:58.128Z,80.80
2022-08-07T07:18:57.409Z,79.19
2022-08-07T07:19:59.162Z,79.25
2022-08-07T07:20:56.844Z,78.04
2022-08-07T07:22:04.983Z,78.75
2022-08-07T07:24:06.449Z,77.84
2022-08-07T07:24:16.048Z,76.42
2022-08-07T07:25:02.803Z,76.39
2022-08-07T07:26:34.045Z,77.80
2022-08-07T07:26:56.802Z,78.50
2022-08-07T07:28:02.978Z,74.37
2022-08-07T07:29:56.712Z,75.78
2022-08-07T07:30:32.331Z,75.44
2022-08-07T07:30:56.731Z,74.33
2022-08-07T07:31:56.677Z,71.67
2022-08-07T07:32:56.757Z,72.34
2022-08-07T07:33:57.379Z,73.11
2022-08-07T07:34:56.612Z,71.00
2022-08-07T07:36:05.602Z,71.70
2022-08-07T07:36:56.694Z,73.22
2022-08-07T07:38:02.100Z,73.58
2022-08-07T07:38:56.697Z,73.58
2022-08-07T07:39:56.797Z,71.47
2022-08-07T07:41:01.451Z,70.06
2022-08-07T07:42:13.300Z,71.87
2022-08-07T07:42:56.614Z,74.08
2022-08-07T07:44:17.363Z,67.84
2022-08-07T07:44:56.858Z,69.01
2022-08-07T07:46:36.867Z,70.42
2022-08-07T07:47:11.964Z,72.71
2022-08-07T07:47:56.760Z,68.88
2022-08-07T07:48:59.936Z,68.48
2022-08-07T07:50:35.338Z,68.68
2022-08-07T07:50:56.641Z,65.93
2022-08-07T07:51:58.347Z,67.64
2022-08-07T07:52:56.576Z,66.13
2022-08-07T07:53:56.730Z,65.02
2022-08-07T07:54:56.422Z,66.60
2022-08-07T07:55:57.694Z,68.71
2022-08-07T07:56:57.490Z,69.82
2022-08-07T07:57:58.460Z,69.82
2022-08-07T07:58:56.603Z,67.61
2022-08-07T07:59:56.421Z,67.91
2022-08-07T08:00:56.757Z,67.47
2022-08-07T08:02:02.430Z,68.18
2022-08-07T08:03:04.992Z,66.87
2022-08-07T08:04:06.020Z,66.34
2022-08-07T08:04:56.521Z,64.13
2022-08-07T08:05:56.330Z,65.33
2022-08-07T08:06:56.887Z,65.10
2022-08-07T08:08:00.986Z,64.30
2022-08-07T08:08:56.606Z,66.11
2022-08-07T08:10:05.304Z,62.49
2022-08-07T08:10:56.755Z,59.58
2022-08-07T08:12:02.102Z,59.14
2022-08-07T08:12:59.195Z,63.67
2022-08-07T08:13:56.620Z,64.17
2022-08-07T08:14:56.364Z,59.82
2022-08-07T08:15:58.498Z,62.23
2022-08-07T08:18:41.429Z,61.33
2022-08-07T08:18:50.377Z,63.31
2022-08-07T08:20:19.641Z,59.09
2022-08-07T08:20:50.196Z,62.07
2022-08-07T08:21:56.006Z,61.17
2022-08-07T08:22:55.957Z,59.16
2022-08-07T08:23:50.068Z,54.62
2022-08-07T08:24:57.026Z,52.72
2022-08-07T08:25:49.999Z,51.92
2022-08-07T08:27:20.471Z,54.52
2022-08-07T08:27:56.415Z,57.30
2022-08-07T08:28:49.989Z,57.00
2022-08-07T08:29:55.486Z,58.20
2022-08-07T08:30:51.489Z,57.17
2022-08-07T08:32:04.645Z,59.18
2022-08-07T08:32:50.262Z,51.97
2022-08-07T08:33:55.739Z,52.27
2022-08-07T08:34:49.858Z,54.74
2022-08-07T08:35:50.860Z,56.95
2022-08-07T08:36:57.810Z,61.15
2022-08-07T08:37:59.585Z,57.55
2022-08-07T08:38:49.909Z,56.15
2022-08-07T08:39:54.846Z,54.44
2022-08-07T08:40:49.907Z,53.05
2022-08-07T08:41:58.153Z,55.72
2022-08-07T08:42:51.726Z,51.02
2022-08-07T08:43:55.853Z,52.42
2022-08-07T08:44:49.788Z,55.62
2022-08-07T08:45:59.489Z,58.39
2022-08-07T08:46:49.858Z,54.99
2022-08-07T08:47:52.891Z,56.49
2022-08-07T08:48:51.055Z,48.99
2022-08-07T08:50:04.956Z,52.57
2022-08-07T08:50:51.595Z,55.77
2022-08-07T08:52:13.828Z,56.77
2022-08-07T08:52:53.524Z,59.04
2022-08-07T08:53:49.745Z,53.84
2022-08-07T08:54:49.898Z,53.44
2022-08-07T08:55:54.763Z,49.74
2022-08-07T08:56:49.700Z,50.04
2022-08-07T08:57:49.622Z,49.22
2022-08-07T08:58:50.682Z,48.63
2022-08-07T08:59:50.385Z,49.82
2022-08-07T09:00:52.647Z,48.70
2022-08-07T09:01:49.842Z,46.70
2022-08-07T09:02:52.618Z,47.10
2022-08-07T09:03:52.725Z,44.81
2022-08-07T09:04:49.530Z,45.31
2022-08-07T09:05:49.548Z,50.17
2022-08-07T09:06:49.540Z,44.29
2022-08-07T09:07:58.060Z,44.07
2022-08-07T09:08:49.537Z,42.67
2022-08-07T09:09:57.017Z,43.55
2022-08-07T09:10:49.625Z,43.73
2022-08-07T09:11:53.208Z,43.82
2022-08-07T09:12:53.796Z,44.12
2022-08-07T09:13:49.704Z,45.90
2022-08-07T09:14:51.015Z,48.68
2022-08-07T09:16:23.615Z,50.48
2022-08-07T09:16:49.500Z,48.26
2022-08-07T09:17:59.606Z,44.18
2022-08-07T09:18:53.285Z,42.69
2022-08-07T09:19:53.265Z,43.68
2022-08-07T09:20:57.707Z,43.29
2022-08-07T09:22:22.753Z,44.28
2022-08-07T09:24:55.029Z,43.49
2022-08-07T09:25:11.969Z,45.55
2022-08-07T09:25:54.456Z,47.82
2022-08-07T09:26:47.920Z,45.83
2022-08-07T09:27:59.578Z,45.90
2022-08-07T09:30:05.703Z,45.19
2022-08-07T09:30:14.010Z,46.88
2022-08-07T09:30:46.421Z,47.25
2022-08-07T09:31:48.453Z,46.86
2022-08-07T09:32:44.650Z,45.45
2022-08-07T09:33:56.955Z,44.65
2022-08-07T09:34:44.871Z,46.12
2022-08-07T09:36:03.326Z,43.34
2022-08-07T09:36:49.582Z,37.09
2022-08-07T09:37:48.348Z,40.44
2022-08-07T09:38:50.230Z,45.50
2022-08-07T09:39:53.590Z,40.47
2022-08-07T09:40:44.418Z,41.26
2022-08-07T09:42:03.023Z,38.28
2022-08-07T09:42:45.594Z,38.88
2022-08-07T09:44:05.320Z,44.21
2022-08-07T09:44:58.325Z,43.02
2022-08-07T09:47:24.152Z,47.49
2022-08-07T09:48:02.513Z,44.59
2022-08-07T09:48:11.614Z,39.93
2022-08-07T09:50:01.602Z,39.63
2022-08-07T09:50:19.723Z,39.43
2022-08-07T09:51:14.769Z,41.52
2022-08-07T09:52:34.330Z,47.24
2022-08-07T09:53:07.378Z,38.70
2022-08-07T09:54:07.378Z,39.10
2022-08-07T09:55:28.764Z,42.25
2022-08-07T09:56:07.385Z,43.61
2022-08-07T09:57:07.300Z,44.70
2022-08-07T09:58:07.298Z,44.78
2022-08-07T09:59:07.856Z,46.44
2022-08-07T10:00:07.263Z,45.23
2022-08-07T10:01:08.369Z,41.16
2022-08-07T10:02:07.421Z,35.61
2022-08-07T10:03:08.429Z,35.61
2022-08-07T10:04:14.309Z,37.80
2022-08-07T10:05:12.402Z,38.96
2022-08-07T10:06:12.365Z,38.35
2022-08-07T10:07:24.415Z,38.16
2022-08-07T10:08:07.184Z,36.17
2022-08-07T10:09:07.183Z,36.76
2022-08-07T10:10:20.968Z,39.72
2022-08-07T10:12:00.650Z,35.77
2022-08-07T10:12:16.694Z,37.24
2022-08-07T10:13:11.024Z,38.22
2022-08-07T10:14:07.157Z,36.76
2022-08-07T10:15:07.104Z,38.91
2022-08-07T10:16:07.337Z,34.10
2022-08-07T10:17:13.360Z,39.32
2022-08-07T10:18:07.111Z,39.40
2022-08-07T10:19:11.067Z,36.46
2022-08-07T10:20:07.184Z,32.64
2022-08-07T10:21:19.627Z,35.81
2022-08-07T10:22:16.364Z,37.68
2022-08-07T10:23:07.719Z,36.11
2022-08-07T10:24:08.769Z,38.28
2022-08-07T10:25:07.192Z,34.63
2022-08-07T10:26:07.024Z,42.20
2022-08-07T10:27:10.446Z,36.76
2022-08-07T10:28:07.074Z,33.80
2022-08-07T10:29:06.996Z,34.39
2022-08-07T10:30:07.162Z,32.67
2022-08-07T10:31:10.982Z,36.73
2022-08-07T10:32:07.102Z,37.13
2022-08-07T10:33:08.401Z,41.75
2022-08-07T10:34:15.335Z,38.18
2022-08-07T10:35:09.156Z,43.38
2022-08-07T10:36:11.226Z,36.78
2022-08-07T10:37:12.362Z,36.66
2022-08-07T10:38:21.023Z,33.01
2022-08-07T10:39:06.960Z,40.11
2022-08-07T10:40:08.958Z,35.96
2022-08-07T10:41:07.069Z,33.65
2022-08-07T10:42:09.814Z,35.92
2022-08-07T10:43:06.906Z,35.00
2022-08-07T10:44:07.760Z,34.72
2022-08-07T10:45:06.825Z,31.77
2022-08-07T10:46:06.906Z,31.00
2022-08-07T10:47:11.819Z,33.08
2022-08-07T10:48:07.458Z,35.36
2022-08-07T10:49:06.866Z,35.56
2022-08-07T10:50:06.832Z,34.36
2022-08-07T10:51:06.856Z,36.80
2022-08-07T10:52:13.280Z,35.53
2022-08-07T10:53:08.332Z,37.18
2022-08-07T10:54:06.785Z,37.36
2022-08-07T10:55:20.975Z,33.59
2022-08-07T10:56:06.995Z,32.81
2022-08-07T10:57:06.751Z,31.71
2022-08-07T10:58:06.820Z,32.48
2022-08-07T10:59:06.981Z,36.29
2022-08-07T11:00:06.806Z,31.70
2022-08-07T11:01:11.621Z,31.22
2022-08-07T11:02:12.316Z,35.44
2022-08-07T11:03:11.363Z,32.23
2022-08-07T11:04:23.074Z,34.92
2022-08-07T11:05:10.281Z,33.07
2022-08-07T11:06:06.630Z,35.92
2022-08-07T11:07:24.607Z,31.10
2022-08-07T11:08:06.998Z,31.10
2022-08-07T11:09:11.105Z,35.43
2022-08-07T11:10:08.856Z,35.51
2022-08-07T11:11:06.626Z,32.93
2022-08-07T11:12:06.701Z,35.59
2022-08-07T11:13:06.711Z,35.47
2022-08-07T11:14:59.720Z,36.20
2022-08-07T11:15:09.638Z,30.40
2022-08-07T11:16:07.500Z,37.28
2022-08-07T11:17:07.197Z,33.54
2022-08-07T11:18:06.551Z,34.11
2022-08-07T11:19:06.931Z,34.31
2022-08-07T11:20:06.629Z,34.20
2022-08-07T11:21:06.669Z,36.07
2022-08-07T11:22:06.711Z,35.95
2022-08-07T11:23:07.301Z,36.05
2022-08-07T11:24:08.510Z,36.91
2022-08-07T11:25:07.259Z,38.37
2022-08-07T11:26:06.720Z,36.19
2022-08-07T11:27:06.506Z,34.23
2022-08-07T11:28:07.200Z,35.10
2022-08-07T11:29:13.154Z,31.47
2022-08-07T11:30:18.694Z,31.87
2022-08-07T11:31:08.765Z,31.99
2022-08-07T11:32:06.519Z,32.01
2022-08-07T11:33:07.909Z,35.44
2022-08-07T11:34:06.673Z,38.27
2022-08-07T11:35:06.466Z,33.85
2022-08-07T11:36:10.014Z,33.46
2022-08-07T11:37:06.774Z,32.97
2022-08-07T11:38:10.338Z,34.74
2022-08-07T11:39:06.983Z,30.91
2022-08-07T11:40:07.835Z,31.53
2022-08-07T11:41:06.583Z,34.90
2022-08-07T11:42:06.516Z,35.30
2022-08-07T11:43:06.522Z,34.31
2022-08-07T11:44:12.253Z,35.69
2022-08-07T11:45:06.400Z,35.67
2022-08-07T11:46:06.394Z,36.34
2022-08-07T11:47:06.523Z,32.21
2022-08-07T11:48:13.767Z,31.05
2022-08-07T11:49:51.068Z,32.82
2022-08-07T11:50:34.887Z,33.72
2022-08-07T11:51:08.935Z,33.92
2022-08-07T11:52:06.363Z,32.82
2022-08-07T11:53:06.415Z,32.15
2022-08-07T11:54:10.418Z,33.62
2022-08-07T11:55:13.113Z,33.92
2022-08-07T11:56:25.015Z,32.95
2022-08-07T11:57:06.273Z,35.41
2022-08-07T11:58:16.106Z,32.95
2022-08-07T12:00:08.138Z,30.88
2022-08-07T12:00:19.612Z,38.15
2022-08-07T12:01:06.787Z,31.76
2022-08-07T12:02:17.703Z,34.03
2022-08-07T12:03:06.321Z,33.94
2022-08-07T12:04:06.341Z,36.02
2022-08-07T12:05:09.135Z,34.03
2022-08-07T12:06:37.532Z,34.41
2022-08-07T12:07:08.981Z,33.51
2022-08-07T12:08:06.233Z,34.77
2022-08-07T12:09:07.441Z,31.33
2022-08-07T12:10:06.305Z,28.51
2022-08-07T12:11:20.132Z,32.95
2022-08-07T12:12:10.851Z,32.56
2022-08-07T12:13:11.341Z,35.10
2022-08-07T12:14:06.185Z,31.26
2022-08-07T12:15:08.195Z,30.36
2022-08-07T12:16:08.956Z,34.28
2022-08-07T12:17:06.081Z,33.58
2022-08-07T12:18:08.225Z,30.73
2022-08-07T12:19:06.130Z,31.41
2022-08-07T12:20:14.001Z,28.20
2022-08-07T12:21:06.122Z,30.77
2022-08-07T12:22:38.781Z,30.00
2022-08-07T12:23:09.164Z,30.72
2022-08-07T12:24:36.831Z,30.35
2022-08-07T12:25:07.669Z,33.82
2022-08-07T12:26:29.086Z,32.07
2022-08-07T12:27:15.677Z,34.55
2022-08-07T12:28:10.278Z,33.64
2022-08-07T12:29:06.718Z,36.38
2022-08-07T12:30:06.050Z,35.88
2022-08-07T12:31:06.043Z,35.84
2022-08-07T12:32:10.782Z,35.13
2022-08-07T12:33:09.385Z,32.38
2022-08-07T12:34:11.202Z,33.05
2022-08-07T12:35:08.423Z,34.43
2022-08-07T12:36:06.030Z,35.00
2022-08-07T12:37:08.728Z,34.22
2022-08-07T12:38:09.623Z,34.01
2022-08-07T12:39:09.369Z,33.02
2022-08-07T12:40:14.843Z,31.07
2022-08-07T12:41:06.116Z,33.23
2022-08-07T12:42:07.096Z,31.85
2022-08-07T12:43:09.933Z,30.88
2022-08-07T12:44:10.430Z,33.44
2022-08-07T12:45:06.555Z,35.02
2022-08-07T12:46:06.124Z,30.11
2022-08-07T12:47:06.266Z,32.51
2022-08-07T12:48:27.954Z,32.11
2022-08-07T12:49:10.262Z,32.82
2022-08-07T12:50:38.182Z,31.63
2022-08-07T12:51:17.062Z,32.45
2022-08-07T12:52:14.315Z,32.77
2022-08-07T12:53:18.853Z,32.28
2022-08-07T12:54:36.755Z,31.78
2022-08-07T12:55:09.737Z,31.48
2022-08-07T12:56:09.325Z,31.51